Aérodrome :
LOGIN :

S'inscrire | Disclaimer

   EN    FR    IT 

 










Légende :    VFR   VFR Marginal   IFR   IFR Intensif   IFR Très Intensif
Visi : 
Plafond : 
>= 8 km
>= 3000ft
5 à 8 km
1000 à 3000 ft
1500m à 5 km
500 à 1000 ft
800 à 1500m
200 à 500 ft
< 800m
< 200 ft
Symboles :   Orages  Brouillard  Fortes neiges  Fortes précipitations  Vent > 20 kt
SIGMETs :   Divers  Orages  Givrage  Turbulence  Onde Orograph.  Cendres Volcan.







- Altitude de l'aérodrome : 458 ft
- Voir les cartes d'approche


LFSI - St-Dizier

DERNIER METAR :
  • 260600Z AUTO VRB02KT CAVOK 23/16 Q1021

METARs EXPIRÉS :
  • 260530Z AUTO 00000KT CAVOK 22/16 Q1021
  • 260500Z AUTO 09003KT CAVOK 20/16 Q1021
  • 260430Z AUTO 08004KT CAVOK 20/15 Q1021
  • 260400Z AUTO VRB03KT CAVOK 19/15 Q1021
  • 260330Z AUTO 08003KT CAVOK 19/16 Q1021

TAF TAF LFSI
Valide du 26 à 03h jusqu'au 27 à 03h UTC


260200Z 2603/2703 VRB03KT CAVOK
Pas de NOTAMs connus pour ce terrain.



MET'MAP, la Météo Aéronautique d'un coup d'oeil ! - Copyright ORBIFLY Décembre 2007 - Disclaimer

ORBIFLY MET'MAP TEAM :

Programmation & Développement : Alexandra Zaïnal
Conception & Développement : Baudouin d'Aumeries
Co-Programmation & Développement : Marc-Olivier Méhu
Soutien technique & logistique : Manuel Goepfert

Contact : metmap@orbifly.com




SOURCES & CREDITS :

   NOAA